Time;durP1;ratioP1;P1;durP2;ratioP2;P2;SDS_P1;SDS_P2;PMS_P1;PMS_P2;Temp;Humidity;BMP_temperature;BMP_pressure;BME280_temperature;BME280_humidity;BME280_pressure;Samples;Min_cycle;Max_cycle;Signal;HPM_P1;HPM_P2
2022/11/29 00:01:24;;;;;;;;;36.50;32.75;;;;;9.29;85.84;101432.41;5009860;28;10860;-67
2022/11/29 00:03:52;;;;;;;;;31.00;30.50;;;;;9.23;85.93;101435.75;5011367;28;11826;-65
2022/11/29 00:06:28;;;;;;;;;33.00;28.75;;;;;9.22;86.09;101433.25;5011016;28;10903;-66
2022/11/29 00:09:00;;;;;;;;;47.25;35.50;;;;;9.20;86.31;101441.50;5010944;28;10973;-64
2022/11/29 00:14:18;;;;;;;;;44.00;36.75;;;;;9.20;85.98;101436.13;5012493;28;10994;-65
2022/11/29 00:16:50;;;;;;;;;34.75;34.75;;;;;9.23;86.17;101441.13;5010523;28;11908;-65
2022/11/29 00:19:17;;;;;;;;;39.25;32.50;;;;;9.22;86.43;101438.63;5010909;28;11094;-66
2022/11/29 00:21:43;;;;;;;;;34.25;30.00;;;;;9.24;86.34;101445.53;5009307;28;10853;-64
2022/11/29 00:24:10;;;;;;;;;41.75;31.75;;;;;9.25;85.96;101441.81;5010784;28;10862;-66
2022/11/29 00:26:37;;;;;;;;;41.50;34.00;;;;;9.26;85.84;101445.34;5010463;28;11064;-66
2022/11/29 00:29:04;;;;;;;;;31.00;28.00;;;;;9.28;86.28;101448.72;5010947;28;11033;-64
2022/11/29 00:31:31;;;;;;;;;41.25;32.00;;;;;9.28;86.28;101454.09;5011617;28;10762;-66
2022/11/29 00:34:00;;;;;;;;;37.50;33.75;;;;;9.28;86.35;101448.72;5010826;28;10908;-61
2022/11/29 00:36:27;;;;;;;;;38.75;32.50;;;;;9.26;86.20;101445.34;5010487;28;11499;-65
2022/11/29 00:38:53;;;;;;;;;42.25;34.25;;;;;9.24;86.41;101447.38;5008486;28;10934;-66
2022/11/29 00:41:20;;;;;;;;;45.00;37.75;;;;;9.25;86.46;101454.41;5015891;28;11005;-65
2022/11/29 00:43:46;;;;;;;;;39.00;33.25;;;;;9.26;86.05;101454.22;5010456;28;11074;-66
2022/11/29 00:46:13;;;;;;;;;43.00;36.50;;;;;9.27;85.95;101455.06;5010058;28;10948;-66
2022/11/29 00:48:39;;;;;;;;;37.00;31.75;;;;;9.25;86.35;101449.03;5010634;28;10928;-66
2022/11/29 00:51:06;;;;;;;;;34.00;26.50;;;;;9.25;86.00;101451.72;5014361;28;10964;-64
2022/11/29 00:53:34;;;;;;;;;36.75;31.75;;;;;9.24;86.39;101453.56;5015474;28;10938;-64
2022/11/29 00:56:01;;;;;;;;;39.50;31.25;;;;;9.26;86.37;101456.09;5008496;28;11685;-64
2022/11/29 00:58:28;;;;;;;;;33.25;26.00;;;;;9.27;86.46;101463.13;5010290;28;11482;-66
2022/11/29 01:00:55;;;;;;;;;32.75;29.75;;;;;9.28;86.18;101471.03;5014472;28;10833;-66
2022/11/29 01:03:22;;;;;;;;;31.25;30.50;;;;;9.28;86.33;101467.50;5010576;28;10844;-66
2022/11/29 01:05:49;;;;;;;;;37.75;29.25;;;;;9.27;86.07;101466.66;5010404;28;10998;-65
2022/11/29 01:08:16;;;;;;;;;33.25;27.75;;;;;9.28;86.20;101471.03;5009709;28;10742;-66
2022/11/29 01:10:43;;;;;;;;;42.25;31.75;;;;;9.28;86.24;101470.19;5010126;28;10846;-65
2022/11/29 01:13:10;;;;;;;;;41.75;35.00;;;;;9.28;85.96;101476.41;5008428;28;11074;-67
2022/11/29 01:15:37;;;;;;;;;37.25;33.00;;;;;9.29;86.06;101474.56;5009786;28;11029;-65
2022/11/29 01:18:03;;;;;;;;;32.00;26.50;;;;;9.31;86.03;101472.53;5014453;28;10845;-66
2022/11/29 01:20:30;;;;;;;;;33.75;27.25;;;;;9.30;85.97;101466.31;5014116;28;10802;-65
2022/11/29 01:22:57;;;;;;;;;33.00;28.25;;;;;9.31;86.21;101475.22;5011520;28;10750;-66
2022/11/29 01:25:23;;;;;;;;;43.25;31.75;;;;;9.30;85.76;101474.38;5013822;28;10843;-66
2022/11/29 01:27:49;;;;;;;;;42.50;31.25;;;;;9.32;86.22;101471.53;5013965;28;10943;-66
2022/11/29 01:30:16;;;;;;;;;40.75;32.00;;;;;9.31;85.73;101465.28;5013299;28;10907;-66
2022/11/29 01:32:42;;;;;;;;;32.50;28.00;;;;;9.29;86.11;101470.03;5012283;28;10923;-66
2022/11/29 01:35:09;;;;;;;;;34.50;27.50;;;;;9.30;86.16;101471.69;5012781;28;10912;-65
2022/11/29 01:37:35;;;;;;;;;29.00;29.00;;;;;9.31;86.39;101467.97;5014065;28;10789;-63
2022/11/29 01:40:02;;;;;;;;;33.75;26.75;;;;;9.32;86.19;101483.13;5014134;28;10746;-64
2022/11/29 01:42:29;;;;;;;;;40.50;32.25;;;;;9.31;85.92;101478.72;5011295;28;11005;-66
2022/11/29 01:45:02;;;;;;;;;37.25;31.75;;;;;9.30;85.89;101477.06;5012266;28;10912;-64
2022/11/29 01:47:30;;;;;;;;;37.50;29.75;;;;;9.30;85.89;101478.91;5029124;28;10904;-66
2022/11/29 01:49:57;;;;;;;;;33.50;28.75;;;;;9.28;86.01;101484.47;5013567;28;10990;-66
2022/11/29 01:52:31;;;;;;;;;38.50;31.75;;;;;9.25;86.21;101487.47;5013624;28;10923;-65
2022/11/29 01:55:01;;;;;;;;;43.25;30.75;;;;;9.27;86.15;101495.38;5013409;28;11000;-66
2022/11/29 01:57:29;;;;;;;;;36.25;30.75;;;;;9.27;85.93;101493.50;5013522;28;11120;-66
2022/11/29 02:00:03;;;;;;;;;37.75;29.75;;;;;9.27;86.29;101493.50;5010746;28;11000;-65
2022/11/29 02:02:43;;;;;;;;;41.75;32.25;;;;;9.28;85.73;101494.38;5008543;28;11438;-64
2022/11/29 02:05:13;;;;;;;;;36.50;29.25;;;;;9.27;86.45;101496.19;5005295;28;11103;-64
2022/11/29 02:07:44;;;;;;;;;42.25;31.00;;;;;9.25;86.26;101490.16;5013176;28;11049;-64
2022/11/29 02:10:12;;;;;;;;;29.25;27.50;;;;;9.23;86.21;101497.53;5013490;28;10887;-66
2022/11/29 02:13:09;;;;;;;;;36.75;31.00;;;;;9.21;86.27;101496.91;5013128;28;10988;-65
2022/11/29 02:15:49;;;;;;;;;26.75;21.00;;;;;9.23;86.00;101497.53;5008381;28;11808;-64
2022/11/29 02:18:53;;;;;;;;;36.25;27.00;;;;;9.22;86.26;101497.72;5013524;28;11674;-64
2022/11/29 02:21:30;;;;;;;;;32.50;24.75;;;;;9.23;86.42;101494.84;5006706;28;10769;-66
2022/11/29 02:24:34;;;;;;;;;28.00;25.25;;;;;9.25;86.28;101498.22;5014715;28;10783;-64
2022/11/29 02:27:16;;;;;;;;;30.50;25.25;;;;;9.23;86.07;101494.84;5012146;28;10723;-66
2022/11/29 02:29:45;;;;;;;;;33.50;28.00;;;;;9.22;86.46;101498.56;5012836;28;11466;-64
2022/11/29 02:32:26;;;;;;;;;30.00;24.75;;;;;9.22;86.05;101506.63;5005383;28;10994;-66
2022/11/29 02:35:12;;;;;;;;;27.75;25.00;;;;;9.21;86.08;101499.56;5012200;28;10908;-66
2022/11/29 02:37:49;;;;;;;;;37.75;27.50;;;;;9.21;86.51;101504.94;5013157;28;10802;-66
2022/11/29 02:40:23;;;;;;;;;34.00;32.50;;;;;9.18;86.32;101507.97;5011568;28;11165;-66
2022/11/29 02:43:18;;;;;;;;;32.50;29.00;;;;;9.17;85.86;101514.34;5027180;28;11009;-66
2022/11/29 02:46:11;;;;;;;;;26.50;24.25;;;;;9.13;85.96;101515.69;5016597;28;11035;-66
2022/11/29 02:49:25;;;;;;;;;33.50;28.50;;;;;9.11;86.27;101515.00;5008351;28;10819;-66
2022/11/29 02:51:59;;;;;;;;;28.50;24.50;;;;;9.11;86.29;101531.13;4992096;28;11020;-64
2022/11/29 02:54:49;;;;;;;;;36.25;27.75;;;;;9.10;86.64;101526.78;4993525;28;11043;-64
2022/11/29 02:57:36;;;;;;;;;28.75;23.00;;;;;9.11;86.59;101531.13;5005387;28;10968;-65
2022/11/29 03:00:13;;;;;;;;;34.00;29.25;;;;;9.11;86.06;101534.66;5010989;28;10927;-65
2022/11/29 03:03:02;;;;;;;;;29.50;25.75;;;;;9.11;86.35;101539.19;5011752;28;10831;-65
2022/11/29 03:06:06;;;;;;;;;30.50;22.75;;;;;9.09;86.34;101542.06;5002203;28;11692;-66
2022/11/29 03:08:45;;;;;;;;;24.75;22.25;;;;;9.07;86.49;101541.38;5012834;28;10927;-66
2022/11/29 03:11:48;;;;;;;;;31.75;28.00;;;;;9.06;86.37;101541.53;5011648;28;10901;-66
2022/11/29 03:14:24;;;;;;;;;34.25;26.25;;;;;9.04;86.70;101546.25;5004109;28;11016;-66
2022/11/29 03:17:10;;;;;;;;;30.00;22.75;;;;;9.03;86.57;101547.25;5011562;28;10997;-66
2022/11/29 03:20:14;;;;;;;;;21.50;19.50;;;;;9.01;86.75;101554.63;5012056;28;10899;-65
2022/11/29 03:23:08;;;;;;;;;24.00;22.25;;;;;9.00;86.82;101552.97;5011215;28;11550;-64
2022/11/29 03:25:41;;;;;;;;;28.50;23.75;;;;;8.99;86.75;101551.25;5008466;28;10662;-66
2022/11/29 03:28:17;;;;;;;;;33.00;26.25;;;;;8.98;86.87;101557.66;5012094;28;10745;-65
2022/11/29 03:30:55;;;;;;;;;32.00;26.25;;;;;8.98;86.26;101557.66;5017478;28;10888;-65
2022/11/29 03:33:51;;;;;;;;;25.00;21.00;;;;;8.96;86.37;101567.72;5011642;28;10726;-66
2022/11/29 03:36:38;;;;;;;;;25.50;21.50;;;;;8.94;86.33;101561.66;5009449;28;10855;-66
2022/11/29 03:39:09;;;;;;;;;27.00;22.75;;;;;8.91;86.57;101565.50;5011281;28;10723;-65
2022/11/29 03:41:47;;;;;;;;;32.75;29.50;;;;;8.89;86.81;101564.84;5022551;28;10995;-66
2022/11/29 03:44:25;;;;;;;;;28.75;27.75;;;;;8.87;86.49;101570.41;5014196;28;10908;-65
2022/11/29 03:47:13;;;;;;;;;30.50;26.50;;;;;8.84;86.62;101565.34;5009360;28;10733;-66
2022/11/29 03:49:47;;;;;;;;;28.00;25.75;;;;;8.83;86.83;101568.19;5011509;28;10898;-66
2022/11/29 03:52:23;;;;;;;;;27.25;21.75;;;;;8.84;86.64;101573.41;5030049;28;11472;-65
2022/11/29 03:55:16;;;;;;;;;21.25;19.50;;;;;8.85;86.36;101575.09;5024022;28;10878;-65
2022/11/29 03:58:00;;;;;;;;;28.75;18.75;;;;;8.87;86.51;101574.91;5010077;28;10902;-66
2022/11/29 04:00:43;;;;;;;;;21.00;17.50;;;;;8.86;86.86;101575.91;5009591;28;10737;-64
2022/11/29 04:03:47;;;;;;;;;20.50;18.25;;;;;8.85;86.63;101577.75;5031257;28;10813;-66
2022/11/29 04:06:23;;;;;;;;;20.00;18.50;;;;;8.85;86.47;101585.00;5013199;28;10836;-65
2022/11/29 04:09:25;;;;;;;;;18.25;15.50;;;;;8.84;86.59;101581.47;5011262;28;11523;-63
2022/11/29 04:12:13;;;;;;;;;23.50;20.25;;;;;8.83;86.69;101584.28;5008676;28;10753;-65
2022/11/29 04:14:57;;;;;;;;;23.00;18.00;;;;;8.81;86.29;101592.53;5008362;28;10756;-65
2022/11/29 04:17:42;;;;;;;;;24.25;17.50;;;;;8.81;86.41;101589.00;5004945;28;10887;-65
2022/11/29 04:20:26;;;;;;;;;21.00;19.50;;;;;8.80;86.85;101593.53;5010744;28;10809;-66
2022/11/29 04:23:23;;;;;;;;;23.75;20.75;;;;;8.79;86.71;101593.69;5010916;28;10872;-66
2022/11/29 04:26:23;;;;;;;;;20.75;20.25;;;;;8.79;86.13;101593.69;5007849;28;10723;-64
2022/11/29 04:29:14;;;;;;;;;21.75;19.25;;;;;8.77;86.45;101593.84;5010863;28;10814;-65
2022/11/29 04:31:56;;;;;;;;;21.25;17.25;;;;;8.76;86.66;101597.56;5010624;28;10743;-65
2022/11/29 04:34:41;;;;;;;;;25.50;20.00;;;;;8.75;85.99;101603.94;5009308;28;10713;-66
2022/11/29 04:37:28;;;;;;;;;19.50;19.00;;;;;8.73;86.08;101610.47;5002476;28;10838;-66
2022/11/29 04:40:05;;;;;;;;;28.00;24.00;;;;;8.71;86.24;101609.75;5009924;28;10848;-66
2022/11/29 04:42:53;;;;;;;;;20.75;19.50;;;;;8.70;86.62;101613.47;5009890;28;11035;-65
2022/11/29 04:45:35;;;;;;;;;19.75;18.25;;;;;8.70;86.67;101614.28;5008403;28;10772;-66
2022/11/29 04:48:26;;;;;;;;;22.50;19.50;;;;;8.69;86.44;101618.00;5010354;28;10848;-65
2022/11/29 04:51:20;;;;;;;;;20.75;18.25;;;;;8.68;86.05;101627.06;5007367;28;10910;-65
2022/11/29 04:54:14;;;;;;;;;19.50;18.50;;;;;8.68;86.47;101636.97;5009883;28;10752;-64
2022/11/29 04:56:48;;;;;;;;;19.00;18.75;;;;;8.64;85.92;101636.44;5018307;28;10664;-65
2022/11/29 04:59:33;;;;;;;;;18.25;16.50;;;;;8.63;86.30;101645.50;5010832;28;10704;-65
2022/11/29 05:02:06;;;;;;;;;23.50;18.50;;;;;8.62;86.63;101647.31;4991275;28;11368;-66
2022/11/29 05:04:49;;;;;;;;;29.00;21.25;;;;;8.61;86.54;101650.16;5006432;28;10945;-65
2022/11/29 05:07:27;;;;;;;;;23.75;21.50;;;;;8.60;86.12;101651.19;5010191;28;10968;-66
2022/11/29 05:10:22;;;;;;;;;19.50;17.00;;;;;8.61;86.29;101647.50;5009705;28;10880;-66
2022/11/29 05:13:11;;;;;;;;;25.00;21.50;;;;;8.59;86.02;101655.72;4999151;28;10756;-65
2022/11/29 05:15:59;;;;;;;;;22.75;20.50;;;;;8.60;86.29;101654.69;5012673;28;11471;-66
2022/11/29 05:18:52;;;;;;;;;17.50;17.25;;;;;8.60;86.08;101654.69;5009914;28;11065;-64
2022/11/29 05:21:32;;;;;;;;;22.50;19.50;;;;;8.59;86.63;101646.81;5006486;28;11461;-63
2022/11/29 05:24:33;;;;;;;;;18.50;15.75;;;;;8.56;86.58;101649.81;5010677;28;10727;-63
2022/11/29 05:27:41;;;;;;;;;23.50;20.00;;;;;8.56;86.67;101658.72;5009683;28;10567;-66
2022/11/29 05:30:17;;;;;;;;;21.25;19.75;;;;;8.56;86.38;101660.56;4998125;28;10817;-65
2022/11/29 05:32:52;;;;;;;;;16.50;14.25;;;;;8.56;86.10;101657.88;5010507;28;10899;-66
2022/11/29 05:35:52;;;;;;;;;15.50;15.50;;;;;8.55;86.18;101662.41;5008342;28;11891;-66
2022/11/29 05:38:29;;;;;;;;;20.50;13.00;;;;;8.57;86.03;101664.91;5001008;28;10765;-64
2022/11/29 05:41:14;;;;;;;;;21.25;17.50;;;;;8.58;86.40;101669.28;5008615;28;10756;-66
2022/11/29 05:43:59;;;;;;;;;13.75;11.25;;;;;8.58;86.33;101675.47;5010387;28;10730;-66
2022/11/29 05:46:41;;;;;;;;;19.25;16.50;;;;;8.58;86.02;101688.88;5009650;28;10641;-66
2022/11/29 05:49:22;;;;;;;;;20.00;20.00;;;;;8.54;86.16;101678.63;5009673;28;10575;-65
2022/11/29 05:52:23;;;;;;;;;23.00;19.25;;;;;8.50;86.01;101683.47;5007388;28;10661;-66
2022/11/29 05:55:03;;;;;;;;;17.25;14.75;;;;;8.50;85.83;101694.22;5009535;28;10897;-66
2022/11/29 05:57:41;;;;;;;;;21.25;19.50;;;;;8.49;86.57;101691.72;5009986;28;10774;-66
2022/11/29 06:00:13;;;;;;;;;23.25;21.75;;;;;8.49;86.02;101697.91;5014548;28;10804;-66
2022/11/29 06:02:52;;;;;;;;;16.50;15.50;;;;;8.48;86.33;101700.75;5010061;28;10845;-66
2022/11/29 06:05:41;;;;;;;;;19.50;17.25;;;;;8.44;86.09;101704.75;5012111;28;10839;-66
2022/11/29 06:08:16;;;;;;;;;18.00;15.25;;;;;8.45;85.99;101709.97;5011613;28;10642;-65
2022/11/29 06:11:00;;;;;;;;;20.75;18.50;;;;;8.46;86.31;101713.47;5013432;28;10726;-64
2022/11/29 06:13:49;;;;;;;;;13.25;11.25;;;;;8.45;85.89;101719.84;4994004;28;10701;-64
2022/11/29 06:16:34;;;;;;;;;18.75;17.75;;;;;8.46;86.27;101718.84;5009317;28;11425;-65
2022/11/29 06:19:29;;;;;;;;;18.75;15.00;;;;;8.45;86.23;101717.19;5013203;28;10722;-65
2022/11/29 06:22:30;;;;;;;;;23.25;18.00;;;;;8.41;85.96;101720.16;5001190;28;10738;-65
2022/11/29 06:25:16;;;;;;;;;14.50;13.25;;;;;8.40;86.46;101721.19;5010228;28;10851;-62
2022/11/29 06:27:57;;;;;;;;;12.50;11.50;;;;;8.40;86.08;101728.38;5012335;28;10720;-63
2022/11/29 06:30:50;;;;;;;;;15.75;14.25;;;;;8.40;86.19;101729.22;5019662;28;10541;-64
2022/11/29 06:33:22;;;;;;;;;17.50;13.25;;;;;8.43;85.81;101725.41;5001568;28;10727;-65
2022/11/29 06:35:59;;;;;;;;;16.25;13.00;;;;;8.39;85.83;101727.53;5010774;28;10545;-63
2022/11/29 06:38:28;;;;;;;;;16.25;13.25;;;;;8.36;86.11;101727.00;5012523;28;10777;-66
2022/11/29 06:40:57;;;;;;;;;12.50;9.00;;;;;8.32;86.34;101731.81;5013044;28;10533;-66
2022/11/29 06:43:28;;;;;;;;;14.75;11.75;;;;;8.31;86.11;101732.81;5010366;28;10771;-65
2022/11/29 06:46:30;;;;;;;;;12.50;7.75;;;;;8.26;86.50;101745.84;5012310;28;10633;-66
2022/11/29 06:49:32;;;;;;;;;14.25;12.50;;;;;8.26;86.66;101745.84;5008877;28;10670;-66
2022/11/29 06:52:25;;;;;;;;;12.75;12.25;;;;;8.28;85.90;101753.75;4998372;28;10658;-65
2022/11/29 06:55:02;;;;;;;;;14.75;14.25;;;;;8.23;86.23;101758.75;5011682;28;10719;-66
2022/11/29 06:57:56;;;;;;;;;18.50;14.75;;;;;8.24;86.12;101763.13;5012588;28;10818;-65
2022/11/29 07:00:26;;;;;;;;;10.75;10.00;;;;;8.24;85.51;101763.13;5012651;28;10974;-66
2022/11/29 07:03:18;;;;;;;;;15.75;12.75;;;;;8.24;86.21;101771.16;5012798;28;11558;-66
2022/11/29 07:05:45;;;;;;;;;14.00;12.50;;;;;8.18;85.61;101772.59;5014543;28;10712;-66
2022/11/29 07:08:20;;;;;;;;;9.75;8.75;;;;;8.15;85.71;101778.31;5011658;28;10708;-66
2022/11/29 07:10:49;;;;;;;;;13.25;10.25;;;;;8.15;86.31;101789.03;5012030;28;10613;-65
2022/11/29 07:13:17;;;;;;;;;12.50;10.50;;;;;8.13;86.36;101791.84;5028831;28;10531;-65
2022/11/29 07:15:55;;;;;;;;;24.75;16.50;;;;;8.10;85.71;101788.63;5019357;28;10775;-66
2022/11/29 07:18:37;;;;;;;;;16.00;13.25;;;;;8.08;85.64;101798.69;5012278;28;10818;-65
2022/11/29 07:21:15;;;;;;;;;17.00;13.75;;;;;8.06;85.28;101798.84;5012376;28;11546;-66
2022/11/29 07:24:14;;;;;;;;;12.50;12.00;;;;;8.04;85.37;101800.00;5012457;28;10737;-66
2022/11/29 07:26:50;;;;;;;;;16.00;10.75;;;;;8.04;85.98;101805.34;5011885;28;10779;-65
2022/11/29 07:29:32;;;;;;;;;10.75;10.75;;;;;8.03;85.81;101804.53;5011803;28;10871;-65
2022/11/29 07:32:26;;;;;;;;;16.50;13.75;;;;;8.02;86.06;101810.88;5022533;28;10619;-65
2022/11/29 07:35:00;;;;;;;;;16.00;15.50;;;;;8.00;85.57;101815.53;5026534;28;10714;-63
2022/11/29 07:37:53;;;;;;;;;17.25;12.75;;;;;8.00;85.34;101812.03;5011862;28;10895;-65
2022/11/29 07:40:58;;;;;;;;;16.25;14.50;;;;;8.01;86.08;101817.22;5013384;28;10898;-65
2022/11/29 07:43:33;;;;;;;;;12.50;12.50;;;;;8.01;86.18;101821.75;4992098;28;10669;-65
2022/11/29 07:45:59;;;;;;;;;15.25;13.00;;;;;8.01;85.71;101821.75;5005345;28;10744;-65
2022/11/29 07:48:26;;;;;;;;;15.75;13.00;;;;;8.00;85.44;101828.09;5011642;28;10765;-65
2022/11/29 07:50:54;;;;;;;;;12.50;10.50;;;;;8.00;85.10;101825.44;5018320;28;10825;-66
2022/11/29 07:53:22;;;;;;;;;9.00;8.25;;;;;7.99;85.06;101826.44;5030120;28;10809;-65
2022/11/29 07:55:49;;;;;;;;;14.50;11.25;;;;;7.94;85.15;101826.91;5018785;28;10882;-65
2022/11/29 07:58:16;;;;;;;;;18.00;14.00;;;;;7.90;85.77;101825.50;5011265;28;11488;-64
2022/11/29 08:00:43;;;;;;;;;10.50;10.50;;;;;7.89;85.76;101832.69;5017860;28;11580;-65
2022/11/29 08:03:10;;;;;;;;;13.00;11.00;;;;;7.89;85.10;101832.69;5015351;28;10481;-66
2022/11/29 08:05:37;;;;;;;;;11.25;11.25;;;;;7.88;85.69;101831.00;5010725;28;10753;-65
2022/11/29 08:08:04;;;;;;;;;12.75;12.75;;;;;7.89;85.69;101831.84;5011131;28;10719;-65
2022/11/29 08:10:30;;;;;;;;;18.75;16.50;;;;;7.86;85.33;101827.66;5014438;28;10798;-66
2022/11/29 08:12:57;;;;;;;;;11.50;11.00;;;;;7.84;84.93;101834.16;5011383;28;10939;-65
2022/11/29 08:15:24;;;;;;;;;12.50;11.50;;;;;7.81;85.40;101846.00;5010401;28;10740;-66
2022/11/29 08:17:51;;;;;;;;;18.50;15.50;;;;;7.78;84.91;101846.34;5011068;28;10882;-65
2022/11/29 08:20:18;;;;;;;;;8.25;7.50;;;;;7.76;85.29;101851.00;5017471;28;10750;-64
2022/11/29 08:22:52;;;;;;;;;10.00;10.00;;;;;7.76;84.83;101845.63;5030744;28;10555;-67
2022/11/29 08:25:18;;;;;;;;;6.00;6.00;;;;;7.78;85.10;101849.00;5021993;28;10654;-65
2022/11/29 08:27:45;;;;;;;;;11.25;9.75;;;;;7.79;84.94;101853.38;5010618;28;10529;-65
2022/11/29 08:30:11;;;;;;;;;11.75;10.50;;;;;7.78;85.72;101857.06;5011988;28;10613;-65
2022/11/29 08:32:38;;;;;;;;;8.25;8.00;;;;;7.80;85.80;101865.78;5011074;28;10707;-66
2022/11/29 08:35:14;;;;;;;;;10.00;9.00;;;;;7.80;85.23;101863.09;5010273;28;10563;-65
2022/11/29 08:37:41;;;;;;;;;12.25;11.25;;;;;7.84;85.25;101864.47;5010671;28;10768;-64
2022/11/29 08:40:07;;;;;;;;;7.00;7.00;;;;;7.87;85.29;101861.50;5011531;28;10625;-65
2022/11/29 08:42:34;;;;;;;;;12.50;10.75;;;;;7.89;85.48;101855.97;5010469;28;10648;-65
2022/11/29 08:45:00;;;;;;;;;18.75;14.75;;;;;7.88;85.06;101865.84;5010182;28;11334;-64
2022/11/29 08:47:36;;;;;;;;;14.25;13.50;;;;;7.84;85.21;101864.47;5010439;28;10916;-63
2022/11/29 08:50:09;;;;;;;;;14.25;13.25;;;;;7.81;84.46;101861.25;5011198;28;10822;-65
2022/11/29 08:55:25;;;;;;;;;13.00;13.00;;;;;7.75;85.42;101878.78;5010541;28;10703;-64
2022/11/29 08:57:58;;;;;;;;;15.25;11.50;;;;;7.79;85.36;101880.19;5010676;28;11589;-65
2022/11/29 09:00:25;;;;;;;;;11.00;9.00;;;;;7.80;85.19;101883.69;5015108;28;10817;-65
2022/11/29 09:02:51;;;;;;;;;10.50;10.50;;;;;7.81;85.33;101883.53;5030282;28;10677;-63
2022/11/29 09:05:18;;;;;;;;;17.00;14.00;;;;;7.77;84.93;101884.00;5021567;28;10590;-65
2022/11/29 09:07:45;;;;;;;;;13.50;12.25;;;;;7.71;84.95;101889.97;5033132;22;10947;-66
2022/11/29 09:10:12;;;;;;;;;11.00;10.50;;;;;7.68;85.14;101899.13;4992220;28;10954;-67
2022/11/29 09:12:39;;;;;;;;;10.25;9.25;;;;;7.65;84.80;101902.94;5007485;28;10864;-66
2022/11/29 09:15:08;;;;;;;;;12.25;12.00;;;;;7.66;85.04;101904.66;5008160;28;10719;-67
2022/11/29 09:17:35;;;;;;;;;13.00;12.25;;;;;7.61;84.94;101904.25;5004942;28;11479;-67
2022/11/29 09:20:02;;;;;;;;;14.50;13.75;;;;;7.61;85.13;101906.06;4996421;28;10962;-67
2022/11/29 09:22:29;;;;;;;;;15.00;14.25;;;;;7.57;84.42;101904.69;5009808;28;10820;-67
2022/11/29 09:24:56;;;;;;;;;16.00;14.00;;;;;7.57;85.15;101902.00;5001124;28;11698;-66
2022/11/29 09:27:22;;;;;;;;;12.75;11.50;;;;;7.59;84.93;101905.41;5009939;28;10901;-66
2022/11/29 09:29:48;;;;;;;;;16.50;12.50;;;;;7.57;85.30;101902.84;5009341;28;10898;-66
2022/11/29 09:32:15;;;;;;;;;11.00;11.00;;;;;7.59;84.94;101908.06;5010363;28;10905;-66
2022/11/29 09:34:41;;;;;;;;;15.50;14.50;;;;;7.59;84.37;101902.72;4992077;28;10919;-67
2022/11/29 09:37:08;;;;;;;;;15.00;15.00;;;;;7.60;84.83;101907.06;5002025;28;10981;-66
2022/11/29 09:39:35;;;;;;;;;13.25;11.00;;;;;7.59;84.56;101916.97;4978983;28;10952;-66
2022/11/29 09:42:31;;;;;;;;;13.25;13.25;;;;;7.60;85.01;101920.47;5014038;28;10823;-67
2022/11/29 09:45:05;;;;;;;;;11.75;10.75;;;;;7.64;84.96;101919.19;4996144;28;10886;-67
2022/11/29 09:47:55;;;;;;;;;13.25;12.50;;;;;7.63;84.40;101922.88;5013182;28;11749;-67
2022/11/29 09:50:33;;;;;;;;;13.50;9.75;;;;;7.62;84.42;101924.69;5013841;28;10802;-66
2022/11/29 09:53:36;;;;;;;;;14.75;14.00;;;;;7.64;84.92;101924.53;4996641;28;10791;-66
2022/11/29 09:56:38;;;;;;;;;15.00;9.25;;;;;7.66;84.80;101922.56;5013311;28;10795;-66
2022/11/29 09:59:27;;;;;;;;;16.75;14.00;;;;;7.65;84.71;101929.75;4995978;28;10945;-67
2022/11/29 10:02:03;;;;;;;;;11.50;10.50;;;;;7.65;84.94;101937.78;4994426;28;10902;-66
2022/11/29 10:04:39;;;;;;;;;8.00;8.00;;;;;7.67;85.33;101934.97;4995163;28;10817;-66
2022/11/29 10:07:21;;;;;;;;;9.25;9.25;;;;;7.69;84.79;101932.97;5013000;28;10874;-68
2022/11/29 10:10:02;;;;;;;;;15.00;13.00;;;;;7.71;85.06;101935.53;5013277;28;11387;-65
2022/11/29 10:12:43;;;;;;;;;11.00;11.00;;;;;7.72;85.04;101935.38;5013540;28;11647;-65
2022/11/29 10:15:20;;;;;;;;;13.00;11.50;;;;;7.76;84.72;101941.28;5013053;28;11588;-66
2022/11/29 10:18:01;;;;;;;;;12.00;12.00;;;;;7.78;84.44;101936.59;4999623;28;10754;-67
2022/11/29 10:20:31;;;;;;;;;12.25;10.50;;;;;7.81;84.87;101937.13;5003210;28;10658;-66
2022/11/29 10:23:25;;;;;;;;;15.75;13.50;;;;;7.88;84.62;101938.25;5013536;28;10611;-66
2022/11/29 10:25:54;;;;;;;;;15.00;15.00;;;;;7.93;84.98;101938.63;4995347;28;10851;-66
2022/11/29 10:28:24;;;;;;;;;15.00;10.00;;;;;7.99;84.65;101944.41;5006388;28;10912;-66
2022/11/29 10:30:53;;;;;;;;;10.00;9.50;;;;;8.03;84.44;101951.16;5006157;28;10781;-66
2022/11/29 10:33:28;;;;;;;;;14.00;12.50;;;;;8.06;84.05;101946.34;5012618;28;10740;-66
2022/11/29 10:35:58;;;;;;;;;11.00;9.25;;;;;8.08;84.26;101940.81;5012531;28;10830;-66
2022/11/29 10:38:24;;;;;;;;;17.75;17.75;;;;;8.11;84.33;101943.19;5012825;28;11420;-66
2022/11/29 10:41:12;;;;;;;;;17.50;10.00;;;;;8.16;84.32;101941.75;5001469;28;10858;-65
2022/11/29 10:43:39;;;;;;;;;14.00;14.00;;;;;8.23;84.92;101943.84;4993590;28;10738;-66
2022/11/29 10:46:14;;;;;;;;;18.50;13.00;;;;;8.23;84.62;101944.66;4989649;28;10854;-66
2022/11/29 10:48:41;;;;;;;;;16.00;15.75;;;;;8.24;84.79;101943.66;5011306;28;11090;-65
2022/11/29 10:51:15;;;;;;;;;16.00;15.75;;;;;8.32;84.75;101946.44;4983238;28;10762;-66
2022/11/29 10:53:43;;;;;;;;;15.75;15.00;;;;;8.39;84.67;101944.03;4993158;28;10679;-66
2022/11/29 10:56:28;;;;;;;;;12.50;12.50;;;;;8.46;85.11;101937.03;5007870;28;11128;-65
2022/11/29 10:59:04;;;;;;;;;15.50;14.75;;;;;8.51;84.62;101934.75;5012584;28;11436;-65
2022/11/29 11:01:35;;;;;;;;;18.75;15.75;;;;;8.55;84.63;101940.66;5008134;28;10522;-66
2022/11/29 11:04:06;;;;;;;;;15.50;12.50;;;;;8.55;84.85;101932.59;5012365;28;10563;-67
2022/11/29 11:06:58;;;;;;;;;15.00;11.75;;;;;8.58;84.45;101940.31;5012459;28;10559;-67
2022/11/29 11:09:34;;;;;;;;;15.50;15.00;;;;;8.57;84.49;101941.34;5012153;28;10584;-67
2022/11/29 11:12:04;;;;;;;;;23.50;18.75;;;;;8.55;84.78;101941.50;4994003;28;11547;-67
2022/11/29 11:14:36;;;;;;;;;18.00;17.00;;;;;8.55;84.30;101938.81;4992908;28;10805;-66
2022/11/29 11:17:24;;;;;;;;;17.25;15.25;;;;;8.57;84.90;101938.66;5012074;28;10639;-67
2022/11/29 11:19:59;;;;;;;;;13.50;12.50;;;;;8.59;84.78;101940.19;5011164;28;10822;-66
2022/11/29 11:22:28;;;;;;;;;20.25;18.25;;;;;8.60;84.97;101932.97;4992609;28;10749;-66
2022/11/29 11:24:58;;;;;;;;;18.75;13.75;;;;;8.62;84.27;101939.00;4996977;28;10820;-67
2022/11/29 11:27:34;;;;;;;;;19.75;18.00;;;;;8.61;84.10;101943.53;4994794;28;10638;-67
2022/11/29 11:30:03;;;;;;;;;20.50;16.75;;;;;8.58;84.81;101945.69;5010041;28;10851;-67
2022/11/29 11:32:30;;;;;;;;;18.75;15.50;;;;;8.54;84.78;101942.47;4992922;28;10686;-67
2022/11/29 11:34:59;;;;;;;;;16.75;15.00;;;;;8.59;85.06;101936.66;4979798;28;10688;-66
2022/11/29 11:37:30;;;;;;;;;17.00;14.00;;;;;8.63;84.72;101941.56;4998887;28;10741;-66
2022/11/29 11:39:59;;;;;;;;;14.50;14.50;;;;;8.66;84.34;101941.22;4979855;28;10711;-66
2022/11/29 11:42:37;;;;;;;;;22.25;14.25;;;;;8.70;84.64;101943.63;5011646;28;10770;-65
2022/11/29 11:45:09;;;;;;;;;15.75;15.50;;;;;8.72;84.81;101939.78;4993709;28;10589;-65
2022/11/29 11:47:42;;;;;;;;;24.75;18.25;;;;;8.75;84.32;101936.81;4999135;28;10738;-66
2022/11/29 11:50:24;;;;;;;;;19.50;19.25;;;;;8.78;84.38;101936.47;4994947;28;10931;-67
2022/11/29 11:52:57;;;;;;;;;18.00;18.00;;;;;8.80;84.32;101944.38;4974669;28;10841;-68
2022/11/29 11:55:32;;;;;;;;;19.50;16.25;;;;;8.85;84.92;101942.06;5000591;28;10583;-67
2022/11/29 11:58:00;;;;;;;;;18.75;17.00;;;;;8.94;84.76;101951.03;5011550;28;10794;-66
2022/11/29 12:00:56;;;;;;;;;17.25;16.00;;;;;9.06;84.70;101957.84;5002440;28;10682;-67
2022/11/29 12:03:55;;;;;;;;;32.00;23.50;;;;;9.22;85.06;101954.41;4975861;28;10759;-66
2022/11/29 12:06:42;;;;;;;;;23.50;18.75;;;;;9.28;84.67;101956.47;5008250;28;10876;-66
2022/11/29 12:09:27;;;;;;;;;16.00;15.75;;;;;9.33;84.56;101963.06;5011092;28;10952;-66